createdAt,value
2023-02-11T00:00:35.354Z,95.35
2023-02-11T00:03:24.228Z,96.39
2023-02-11T00:06:14.636Z,96.12
2023-02-11T00:09:03.960Z,96.26
2023-02-11T00:11:52.397Z,96.88
2023-02-11T00:14:40.870Z,97.48
2023-02-11T00:17:29.459Z,97.83
2023-02-11T00:20:17.895Z,98.18
2023-02-11T00:23:07.734Z,97.63
2023-02-11T00:25:56.205Z,97.61
2023-02-11T00:28:45.061Z,97.47
2023-02-11T00:31:34.201Z,97.68
2023-02-11T00:34:22.775Z,97.50
2023-02-11T00:37:12.095Z,97.92
2023-02-11T00:40:03.248Z,98.03
2023-02-11T00:42:52.922Z,97.60
2023-02-11T00:45:41.436Z,98.37
2023-02-11T00:48:29.938Z,97.66
2023-02-11T00:51:18.619Z,97.99
2023-02-11T00:54:07.480Z,98.21
2023-02-11T00:56:57.371Z,98.87
2023-02-11T00:59:45.804Z,99.01
2023-02-11T01:02:34.439Z,99.49
2023-02-11T01:05:24.584Z,100.00
2023-02-11T01:08:13.381Z,100.00
2023-02-11T01:11:03.595Z,100.00
2023-02-11T01:13:53.627Z,100.00
2023-02-11T01:16:42.239Z,100.00
2023-02-11T01:19:30.672Z,100.00
2023-02-11T01:22:19.149Z,100.00
2023-02-11T01:25:08.280Z,100.00
2023-02-11T01:27:56.808Z,99.99
2023-02-11T01:30:46.784Z,100.00
2023-02-11T01:33:35.279Z,100.00
2023-02-11T01:36:23.800Z,100.00
2023-02-11T01:39:12.331Z,100.00
2023-02-11T01:42:00.923Z,100.00
2023-02-11T01:44:52.434Z,100.00
2023-02-11T01:47:42.229Z,100.00
2023-02-11T01:50:30.731Z,100.00
2023-02-11T01:53:36.814Z,100.00
2023-02-11T01:56:43.890Z,100.00
2023-02-11T01:59:34.689Z,100.00
2023-02-11T02:02:26.263Z,100.00
2023-02-11T02:05:23.220Z,100.00
2023-02-11T02:08:18.529Z,100.00
2023-02-11T02:11:07.448Z,100.00
2023-02-11T02:13:55.936Z,100.00
2023-02-11T02:16:45.931Z,100.00
2023-02-11T02:20:04.960Z,100.00
2023-02-11T02:23:36.915Z,100.00
2023-02-11T02:26:56.778Z,100.00
2023-02-11T02:30:18.414Z,100.00
2023-02-11T02:33:25.623Z,100.00
2023-02-11T02:36:18.893Z,100.00
2023-02-11T02:39:10.208Z,100.00
2023-02-11T02:41:59.271Z,100.00
2023-02-11T02:44:50.179Z,100.00
2023-02-11T02:47:38.717Z,100.00
2023-02-11T02:50:31.994Z,100.00
2023-02-11T02:53:26.170Z,100.00
2023-02-11T02:56:20.271Z,100.00
2023-02-11T02:59:26.856Z,100.00
2023-02-11T03:02:19.487Z,100.00
2023-02-11T03:05:13.043Z,100.00
2023-02-11T03:08:09.181Z,100.00
2023-02-11T03:10:58.378Z,100.00
2023-02-11T03:13:47.323Z,100.00
2023-02-11T03:16:39.186Z,100.00
2023-02-11T03:19:30.169Z,100.00
2023-02-11T03:22:21.227Z,100.00
2023-02-11T03:25:11.218Z,100.00
2023-02-11T03:28:04.767Z,100.00
2023-02-11T03:30:57.213Z,100.00
2023-02-11T03:33:51.983Z,100.00
2023-02-11T03:36:45.900Z,100.00
2023-02-11T03:39:37.905Z,100.00
2023-02-11T03:42:31.197Z,100.00
2023-02-11T03:45:21.666Z,100.00
2023-02-11T03:48:12.969Z,100.00
2023-02-11T03:51:04.218Z,100.00
2023-02-11T03:53:54.060Z,100.00
2023-02-11T03:56:46.716Z,100.00
2023-02-11T03:59:55.466Z,100.00
2023-02-11T04:02:44.126Z,100.00
2023-02-11T04:05:33.161Z,100.00
2023-02-11T04:08:21.948Z,100.00
2023-02-11T04:11:10.646Z,100.00
2023-02-11T04:13:59.110Z,100.00
2023-02-11T04:16:48.922Z,100.00
2023-02-11T04:19:37.481Z,100.00
2023-02-11T04:22:25.946Z,100.00
2023-02-11T04:25:14.541Z,100.00
2023-02-11T04:28:03.134Z,100.00
2023-02-11T04:30:52.065Z,100.00
2023-02-11T04:33:41.886Z,100.00
2023-02-11T04:36:30.271Z,100.00
2023-02-11T04:39:18.779Z,100.00
2023-02-11T04:42:07.426Z,100.00
2023-02-11T04:44:55.894Z,100.00
2023-02-11T04:47:44.472Z,100.00
2023-02-11T04:50:34.316Z,100.00
2023-02-11T04:53:22.777Z,100.00
2023-02-11T04:56:11.283Z,100.00
2023-02-11T04:58:59.767Z,100.00
2023-02-11T05:01:48.302Z,100.00
2023-02-11T05:04:36.838Z,100.00
2023-02-11T05:07:26.713Z,100.00
2023-02-11T05:10:15.299Z,100.00
2023-02-11T05:13:03.862Z,100.00
2023-02-11T05:15:52.646Z,100.00
2023-02-11T05:18:42.103Z,100.00
2023-02-11T05:21:30.571Z,100.00
2023-02-11T05:24:20.796Z,100.00
2023-02-11T05:27:09.313Z,100.00
2023-02-11T05:29:58.077Z,100.00
2023-02-11T05:32:46.587Z,100.00
2023-02-11T05:35:35.040Z,100.00
2023-02-11T05:38:23.542Z,100.00
2023-02-11T05:41:13.485Z,100.00
2023-02-11T05:44:02.033Z,100.00
2023-02-11T05:46:50.486Z,100.00
2023-02-11T05:49:38.993Z,100.00
2023-02-11T05:52:27.482Z,100.00
2023-02-11T05:55:16.108Z,100.00
2023-02-11T05:58:05.985Z,100.00
2023-02-11T06:00:54.448Z,100.00
2023-02-11T06:03:43.095Z,100.00
2023-02-11T06:06:31.612Z,100.00
2023-02-11T06:09:20.148Z,100.00
2023-02-11T06:12:08.823Z,100.00
2023-02-11T06:14:58.690Z,100.00
2023-02-11T06:17:47.165Z,100.00
2023-02-11T06:20:35.674Z,100.00
2023-02-11T06:23:24.209Z,100.00
2023-02-11T06:26:19.197Z,100.00
2023-02-11T06:29:07.664Z,100.00
2023-02-11T06:31:57.557Z,100.00
2023-02-11T06:34:46.329Z,100.00
2023-02-11T06:37:35.261Z,100.00
2023-02-11T06:40:23.786Z,100.00
2023-02-11T06:43:12.240Z,100.00
2023-02-11T06:46:00.753Z,100.00
2023-02-11T06:48:50.780Z,98.37
2023-02-11T06:51:39.267Z,98.35
2023-02-11T06:54:27.779Z,98.60
2023-02-11T06:57:16.208Z,98.59
2023-02-11T07:00:05.893Z,97.95
2023-02-11T07:02:54.471Z,97.43
2023-02-11T07:05:44.853Z,97.57
2023-02-11T07:08:34.230Z,98.31
2023-02-11T07:11:25.237Z,97.06
2023-02-11T07:14:14.322Z,96.36
2023-02-11T07:17:04.035Z,95.65
2023-02-11T07:19:52.524Z,95.48
2023-02-11T07:22:42.364Z,95.76
2023-02-11T07:25:30.780Z,94.58
2023-02-11T07:28:19.363Z,93.31
2023-02-11T07:31:08.971Z,93.28
2023-02-11T07:33:59.859Z,92.46
2023-02-11T07:36:48.962Z,92.52
2023-02-11T07:39:38.828Z,93.32
2023-02-11T07:42:27.316Z,92.92
2023-02-11T07:45:16.302Z,93.75
2023-02-11T07:48:05.126Z,93.52
2023-02-11T07:50:53.590Z,93.44
2023-02-11T07:53:42.228Z,93.17
2023-02-11T07:56:32.150Z,93.78
2023-02-11T07:59:20.708Z,93.57
2023-02-11T08:02:10.142Z,93.26
2023-02-11T08:04:58.589Z,92.85
2023-02-11T08:07:47.128Z,93.42
2023-02-11T08:10:35.573Z,91.77
2023-02-11T08:13:26.973Z,90.98
2023-02-11T08:16:20.147Z,89.66
2023-02-11T08:19:11.507Z,88.07
2023-02-11T08:22:01.198Z,87.97
2023-02-11T08:24:52.266Z,86.64
2023-02-11T08:27:40.874Z,84.08
2023-02-11T08:30:30.702Z,83.52
2023-02-11T08:33:19.190Z,82.60
2023-02-11T08:36:09.712Z,81.92
2023-02-11T08:39:15.865Z,80.89
2023-02-11T08:42:06.427Z,81.00
2023-02-11T08:44:54.926Z,80.37
2023-02-11T08:47:44.742Z,81.09
2023-02-11T08:50:33.188Z,80.92
2023-02-11T08:53:21.606Z,79.49
2023-02-11T08:56:13.395Z,77.96
2023-02-11T08:59:02.349Z,81.37
2023-02-11T09:01:51.125Z,79.22
2023-02-11T09:04:41.259Z,79.25
2023-02-11T09:07:29.853Z,78.25
2023-02-11T09:10:18.373Z,77.27
2023-02-11T09:13:07.561Z,77.79
2023-02-11T09:15:56.084Z,77.71
2023-02-11T09:18:45.657Z,77.33
2023-02-11T09:21:35.542Z,75.58
2023-02-11T09:24:24.050Z,74.10
2023-02-11T09:27:12.508Z,74.27
2023-02-11T09:30:01.000Z,72.85
2023-02-11T09:32:49.505Z,72.37
2023-02-11T09:35:38.015Z,68.32
2023-02-11T09:38:27.800Z,66.62
2023-02-11T09:41:44.896Z,66.78
2023-02-11T09:44:35.459Z,66.63
2023-02-11T09:47:30.752Z,67.83
2023-02-11T09:50:23.864Z,69.04
2023-02-11T09:53:17.809Z,69.30
2023-02-11T09:56:13.747Z,68.54
2023-02-11T09:59:02.298Z,67.84
2023-02-11T10:01:52.685Z,66.30
2023-02-11T10:04:59.781Z,66.50
2023-02-11T10:07:53.030Z,64.24
2023-02-11T10:10:48.955Z,63.48
2023-02-11T10:13:48.729Z,61.98
2023-02-11T10:16:48.973Z,61.88
2023-02-11T10:19:47.352Z,61.18
2023-02-11T10:22:37.907Z,58.59
2023-02-11T10:25:27.935Z,57.81
2023-02-11T10:28:19.079Z,58.35
2023-02-11T10:31:11.412Z,57.60
2023-02-11T10:34:01.912Z,58.62
2023-02-11T10:36:50.345Z,59.39
2023-02-11T10:39:39.861Z,59.10
2023-02-11T10:42:28.512Z,59.66
2023-02-11T10:45:24.933Z,58.74
2023-02-11T10:48:40.446Z,58.46
2023-02-11T10:51:29.836Z,57.42
2023-02-11T10:54:21.270Z,56.97
2023-02-11T10:57:19.759Z,57.14
2023-02-11T11:00:22.611Z,57.37
2023-02-11T11:03:18.602Z,56.94
2023-02-11T11:06:10.391Z,57.01
2023-02-11T11:08:59.012Z,56.92
2023-02-11T11:11:53.381Z,56.89
2023-02-11T11:14:41.917Z,55.92
2023-02-11T11:17:30.762Z,57.41
2023-02-11T11:20:24.837Z,56.55
2023-02-11T11:23:18.830Z,56.36
2023-02-11T11:26:10.119Z,57.14
2023-02-11T11:29:01.505Z,57.53
2023-02-11T11:31:52.899Z,56.31
2023-02-11T11:34:42.982Z,56.68
2023-02-11T11:37:33.173Z,57.35
2023-02-11T11:40:25.664Z,58.00
2023-02-11T11:43:23.037Z,58.21
2023-02-11T11:46:12.248Z,57.75
2023-02-11T11:49:23.343Z,58.27
2023-02-11T11:52:19.282Z,57.86
2023-02-11T11:55:15.469Z,57.76
2023-02-11T11:58:05.465Z,57.49
2023-02-11T12:00:59.772Z,56.93
2023-02-11T12:04:11.950Z,57.34
2023-02-11T12:07:20.797Z,56.68
2023-02-11T12:10:27.332Z,56.61
2023-02-11T12:13:42.040Z,57.63
2023-02-11T12:16:37.136Z,57.11
2023-02-11T12:19:52.367Z,56.39
2023-02-11T12:22:48.292Z,57.12
2023-02-11T12:25:42.569Z,57.20
2023-02-11T12:28:38.433Z,57.23
2023-02-11T12:31:32.556Z,57.45
2023-02-11T12:34:33.615Z,57.08
2023-02-11T12:37:31.636Z,57.39
2023-02-11T12:40:25.982Z,56.96
2023-02-11T12:43:21.338Z,57.13
2023-02-11T12:46:28.968Z,57.68
2023-02-11T12:49:28.618Z,56.90
2023-02-11T12:52:32.279Z,57.01
2023-02-11T12:55:23.005Z,56.89
2023-02-11T12:58:14.464Z,57.17
2023-02-11T13:01:06.758Z,57.59
2023-02-11T13:03:58.424Z,57.41
2023-02-11T13:06:51.377Z,56.56
2023-02-11T13:09:44.471Z,56.91
2023-02-11T13:12:51.399Z,57.03
2023-02-11T13:15:40.175Z,57.42
2023-02-11T13:18:49.994Z,57.68
2023-02-11T13:21:49.589Z,57.90
2023-02-11T13:24:44.787Z,61.68
2023-02-11T13:27:42.583Z,58.57
2023-02-11T13:30:35.375Z,58.43
2023-02-11T13:33:34.955Z,60.02
2023-02-11T13:36:25.169Z,58.27
2023-02-11T13:39:21.145Z,57.94
2023-02-11T13:42:18.066Z,58.51
2023-02-11T13:45:18.598Z,58.50
2023-02-11T13:48:10.017Z,58.95
2023-02-11T13:51:00.590Z,60.54
2023-02-11T13:53:51.539Z,58.90
2023-02-11T13:56:44.012Z,59.35
2023-02-11T13:59:47.512Z,60.12
2023-02-11T14:02:55.063Z,59.07
2023-02-11T14:06:31.669Z,59.41
2023-02-11T14:09:39.431Z,59.58
2023-02-11T14:12:44.100Z,59.71
2023-02-11T14:15:39.965Z,60.42
2023-02-11T14:18:55.732Z,59.64
2023-02-11T14:21:45.550Z,59.96
2023-02-11T14:24:49.841Z,61.15
2023-02-11T14:27:42.361Z,60.38
2023-02-11T14:30:42.840Z,60.97
2023-02-11T14:33:54.110Z,60.77
2023-02-11T14:37:00.033Z,61.26
2023-02-11T14:39:55.929Z,60.84
2023-02-11T14:42:44.791Z,61.00
2023-02-11T14:45:37.952Z,60.95
2023-02-11T14:48:30.517Z,61.72
2023-02-11T14:51:23.139Z,61.88
2023-02-11T14:54:15.127Z,62.23
2023-02-11T14:57:11.105Z,62.06
2023-02-11T15:00:02.580Z,62.36
2023-02-11T15:02:53.624Z,62.52
2023-02-11T15:05:42.126Z,62.94
2023-02-11T15:08:31.477Z,63.62
2023-02-11T15:11:22.289Z,62.60
2023-02-11T15:14:12.605Z,63.66
2023-02-11T15:17:03.668Z,63.08
2023-02-11T15:19:55.710Z,63.66
2023-02-11T15:22:45.131Z,63.58
2023-02-11T15:25:34.321Z,63.19
2023-02-11T15:28:24.757Z,63.40
2023-02-11T15:31:16.635Z,64.62
2023-02-11T15:34:08.805Z,63.93
2023-02-11T15:36:58.837Z,64.75
2023-02-11T15:39:47.471Z,64.94
2023-02-11T15:42:50.698Z,65.03
2023-02-11T15:45:42.960Z,64.95
2023-02-11T15:48:36.454Z,64.51
2023-02-11T15:51:29.439Z,65.46
2023-02-11T15:54:22.053Z,66.01
2023-02-11T15:57:11.379Z,65.75
2023-02-11T16:00:04.321Z,65.91
2023-02-11T16:02:53.667Z,66.64
2023-02-11T16:05:42.271Z,66.64
2023-02-11T16:08:34.629Z,66.63
2023-02-11T16:11:29.572Z,66.22
2023-02-11T16:14:23.876Z,66.91
2023-02-11T16:17:14.283Z,66.61
2023-02-11T16:20:02.778Z,66.92
2023-02-11T16:22:51.334Z,67.12
2023-02-11T16:25:43.393Z,67.00
2023-02-11T16:28:33.646Z,67.46
2023-02-11T16:31:22.212Z,67.63
2023-02-11T16:34:18.629Z,68.50
2023-02-11T16:37:07.493Z,68.71
2023-02-11T16:39:56.063Z,68.76
2023-02-11T16:42:44.546Z,69.11
2023-02-11T16:45:38.333Z,69.15
2023-02-11T16:48:26.794Z,69.09
2023-02-11T16:51:15.346Z,69.89
2023-02-11T16:54:03.843Z,70.07
2023-02-11T16:56:52.304Z,69.44
2023-02-11T16:59:40.744Z,70.60
2023-02-11T17:02:32.544Z,70.01
2023-02-11T17:05:23.272Z,70.63
2023-02-11T17:08:12.605Z,70.85
2023-02-11T17:11:01.100Z,71.08
2023-02-11T17:13:49.652Z,70.59
2023-02-11T17:16:40.661Z,70.98
2023-02-11T17:19:30.637Z,71.04
2023-02-11T17:22:19.453Z,71.47
2023-02-11T17:25:08.169Z,72.10
2023-02-11T17:27:56.786Z,72.86
2023-02-11T17:30:45.315Z,73.20
2023-02-11T17:33:36.113Z,73.74
2023-02-11T17:36:26.079Z,73.62
2023-02-11T17:39:15.054Z,74.03
2023-02-11T17:42:03.706Z,74.27
2023-02-11T17:44:52.138Z,74.25
2023-02-11T17:47:40.713Z,74.40
2023-02-11T17:50:29.585Z,74.97
2023-02-11T17:53:19.547Z,74.88
2023-02-11T17:56:10.178Z,75.63
2023-02-11T17:58:58.696Z,76.71
2023-02-11T18:01:47.763Z,76.70
2023-02-11T18:04:36.414Z,76.83
2023-02-11T18:07:25.242Z,77.41
2023-02-11T18:10:15.155Z,77.49
2023-02-11T18:13:03.607Z,77.64
2023-02-11T18:15:52.446Z,78.35
2023-02-11T18:18:41.096Z,78.97
2023-02-11T18:21:29.604Z,79.25
2023-02-11T18:24:18.162Z,78.82
2023-02-11T18:27:08.274Z,79.14
2023-02-11T18:29:56.910Z,79.12
2023-02-11T18:32:45.528Z,78.71
2023-02-11T18:35:34.068Z,78.96
2023-02-11T18:38:23.129Z,79.07
2023-02-11T18:41:11.938Z,79.87
2023-02-11T18:44:03.037Z,80.30
2023-02-11T18:46:52.290Z,80.81
2023-02-11T18:49:40.797Z,80.40
2023-02-11T18:52:29.298Z,80.70
2023-02-11T18:55:23.247Z,80.37
2023-02-11T18:58:12.458Z,80.75
2023-02-11T19:01:02.414Z,80.82
2023-02-11T19:03:51.581Z,81.10
2023-02-11T19:06:40.166Z,81.16
2023-02-11T19:09:28.752Z,81.21
2023-02-11T19:12:17.381Z,81.82
2023-02-11T19:15:07.592Z,81.97
2023-02-11T19:17:57.420Z,82.49
2023-02-11T19:20:46.001Z,82.86
2023-02-11T19:23:34.843Z,82.61
2023-02-11T19:26:24.784Z,82.91
2023-02-11T19:29:13.395Z,83.17
2023-02-11T19:32:02.186Z,83.41
2023-02-11T19:34:53.162Z,82.84
2023-02-11T19:37:41.747Z,83.16
2023-02-11T19:40:30.290Z,84.36
2023-02-11T19:43:18.824Z,84.30
2023-02-11T19:46:07.570Z,84.14
2023-02-11T19:48:56.160Z,84.19
2023-02-11T19:51:46.025Z,84.02
2023-02-11T19:54:34.616Z,84.26
2023-02-11T19:57:23.210Z,84.99
2023-02-11T20:00:12.739Z,85.48
2023-02-11T20:03:01.317Z,84.59
2023-02-11T20:05:50.532Z,84.57
2023-02-11T20:08:41.032Z,85.24
2023-02-11T20:11:30.557Z,85.50
2023-02-11T20:14:19.205Z,85.60
2023-02-11T20:17:07.713Z,85.67
2023-02-11T20:19:56.211Z,85.49
2023-02-11T20:22:44.731Z,85.22
2023-02-11T20:25:34.626Z,84.96
2023-02-11T20:28:23.254Z,84.93
2023-02-11T20:31:12.457Z,84.46
2023-02-11T20:34:01.472Z,85.55
2023-02-11T20:36:52.777Z,86.22
2023-02-11T20:39:42.024Z,85.74
2023-02-11T20:42:31.894Z,86.36
2023-02-11T20:45:20.409Z,86.91
2023-02-11T20:48:08.947Z,86.77
2023-02-11T20:50:57.448Z,87.02
2023-02-11T20:53:49.849Z,87.44
2023-02-11T20:56:39.634Z,87.75
2023-02-11T20:59:29.478Z,87.99
2023-02-11T21:02:18.397Z,88.03
2023-02-11T21:05:07.479Z,88.28
2023-02-11T21:07:55.982Z,88.28
2023-02-11T21:10:44.787Z,88.66
2023-02-11T21:13:33.895Z,89.08
2023-02-11T21:16:24.128Z,88.75
2023-02-11T21:19:13.280Z,88.59
2023-02-11T21:22:01.892Z,88.98
2023-02-11T21:24:50.436Z,88.77
2023-02-11T21:27:39.180Z,88.80
2023-02-11T21:30:27.729Z,89.00
2023-02-11T21:33:17.680Z,89.17
2023-02-11T21:36:08.285Z,89.66
2023-02-11T21:38:56.918Z,89.73
2023-02-11T21:41:45.489Z,90.82
2023-02-11T21:44:34.006Z,90.16
2023-02-11T21:47:22.535Z,90.94
2023-02-11T21:50:12.958Z,90.79
2023-02-11T21:53:01.487Z,91.11
2023-02-11T21:55:51.194Z,92.13
2023-02-11T21:58:39.868Z,92.46
2023-02-11T22:01:30.156Z,92.66
2023-02-11T22:04:18.745Z,92.82
2023-02-11T22:07:08.690Z,92.23
2023-02-11T22:09:57.183Z,92.43
2023-02-11T22:12:45.898Z,92.60
2023-02-11T22:15:34.432Z,93.02
2023-02-11T22:18:22.912Z,92.84
2023-02-11T22:21:16.695Z,92.90
2023-02-11T22:24:07.242Z,93.21
2023-02-11T22:26:55.754Z,93.45
2023-02-11T22:29:44.732Z,93.32
2023-02-11T22:32:33.212Z,93.53
2023-02-11T22:35:21.852Z,93.13
2023-02-11T22:38:10.348Z,93.76
2023-02-11T22:41:01.103Z,94.19
2023-02-11T22:43:50.142Z,94.53
2023-02-11T22:46:39.135Z,94.72
2023-02-11T22:49:28.927Z,94.93
2023-02-11T22:52:17.344Z,94.29
2023-02-11T22:55:07.074Z,94.46
2023-02-11T22:57:56.931Z,95.01
2023-02-11T23:00:45.433Z,94.81
2023-02-11T23:03:34.669Z,94.94
2023-02-11T23:06:23.176Z,95.37
2023-02-11T23:09:13.486Z,95.60
2023-02-11T23:12:02.011Z,95.66
2023-02-11T23:14:56.079Z,95.51
2023-02-11T23:17:44.539Z,95.48
2023-02-11T23:20:34.988Z,95.61
2023-02-11T23:23:23.482Z,95.75
2023-02-11T23:26:13.191Z,95.55
2023-02-11T23:29:01.899Z,96.66
2023-02-11T23:31:51.887Z,96.87
2023-02-11T23:34:40.446Z,96.96
2023-02-11T23:37:28.959Z,97.07
2023-02-11T23:40:17.573Z,97.19
2023-02-11T23:43:06.096Z,96.87
2023-02-11T23:45:54.809Z,97.61
2023-02-11T23:48:44.850Z,96.86
2023-02-11T23:51:33.331Z,96.05
2023-02-11T23:54:21.952Z,94.44
2023-02-11T23:57:10.381Z,94.77
2023-02-11T23:59:58.887Z,95.01
